sensor_id;sensor_type;location;lat;lon;timestamp;P1;durP1;ratioP1;P2;durP2;ratioP2
26598;SDS011;14240;51.064;16.612;2024-03-06T00:01:01;83.85;;;39.40;;
26598;SDS011;14240;51.064;16.612;2024-03-06T00:03:27;90.85;;;41.28;;
26598;SDS011;14240;51.064;16.612;2024-03-06T00:05:52;84.85;;;39.92;;
26598;SDS011;14240;51.064;16.612;2024-03-06T00:08:18;93.95;;;40.65;;
26598;SDS011;14240;51.064;16.612;2024-03-06T00:10:44;89.13;;;41.15;;
26598;SDS011;14240;51.064;16.612;2024-03-06T00:13:10;87.80;;;38.53;;
26598;SDS011;14240;51.064;16.612;2024-03-06T00:15:36;86.97;;;40.10;;
26598;SDS011;14240;51.064;16.612;2024-03-06T00:18:01;90.13;;;40.42;;
26598;SDS011;14240;51.064;16.612;2024-03-06T00:20:29;82.13;;;39.22;;
26598;SDS011;14240;51.064;16.612;2024-03-06T00:22:55;83.70;;;40.22;;
26598;SDS011;14240;51.064;16.612;2024-03-06T00:25:20;91.97;;;42.70;;
26598;SDS011;14240;51.064;16.612;2024-03-06T00:27:46;87.80;;;40.85;;
26598;SDS011;14240;51.064;16.612;2024-03-06T00:30:12;84.47;;;40.05;;
26598;SDS011;14240;51.064;16.612;2024-03-06T00:32:38;91.05;;;41.47;;
26598;SDS011;14240;51.064;16.612;2024-03-06T00:35:04;88.50;;;42.13;;
26598;SDS011;14240;51.064;16.612;2024-03-06T00:37:31;90.93;;;42.40;;
26598;SDS011;14240;51.064;16.612;2024-03-06T00:39:56;89.10;;;40.00;;
26598;SDS011;14240;51.064;16.612;2024-03-06T00:42:22;85.03;;;40.60;;
26598;SDS011;14240;51.064;16.612;2024-03-06T00:44:48;90.55;;;40.67;;
26598;SDS011;14240;51.064;16.612;2024-03-06T00:47:13;97.68;;;42.28;;
26598;SDS011;14240;51.064;16.612;2024-03-06T00:49:39;83.07;;;41.25;;
26598;SDS011;14240;51.064;16.612;2024-03-06T00:52:07;90.57;;;40.63;;
26598;SDS011;14240;51.064;16.612;2024-03-06T00:54:34;88.10;;;41.75;;
26598;SDS011;14240;51.064;16.612;2024-03-06T00:57:00;93.97;;;41.85;;
26598;SDS011;14240;51.064;16.612;2024-03-06T00:59:26;87.30;;;39.22;;
26598;SDS011;14240;51.064;16.612;2024-03-06T01:01:53;89.53;;;41.55;;
26598;SDS011;14240;51.064;16.612;2024-03-06T01:04:21;90.35;;;40.60;;
26598;SDS011;14240;51.064;16.612;2024-03-06T01:06:47;83.30;;;38.63;;
26598;SDS011;14240;51.064;16.612;2024-03-06T01:09:13;88.15;;;40.53;;
26598;SDS011;14240;51.064;16.612;2024-03-06T01:11:38;87.90;;;40.22;;
26598;SDS011;14240;51.064;16.612;2024-03-06T01:14:04;88.82;;;41.33;;
26598;SDS011;14240;51.064;16.612;2024-03-06T01:16:30;83.72;;;40.97;;
26598;SDS011;14240;51.064;16.612;2024-03-06T01:18:56;89.97;;;42.00;;
26598;SDS011;14240;51.064;16.612;2024-03-06T01:21:21;91.45;;;41.53;;
26598;SDS011;14240;51.064;16.612;2024-03-06T01:23:47;93.95;;;41.75;;
26598;SDS011;14240;51.064;16.612;2024-03-06T01:26:13;86.90;;;40.63;;
26598;SDS011;14240;51.064;16.612;2024-03-06T01:28:39;85.63;;;40.90;;
26598;SDS011;14240;51.064;16.612;2024-03-06T01:31:04;95.43;;;43.00;;
26598;SDS011;14240;51.064;16.612;2024-03-06T01:33:30;96.28;;;42.42;;
26598;SDS011;14240;51.064;16.612;2024-03-06T01:35:56;97.00;;;41.33;;
26598;SDS011;14240;51.064;16.612;2024-03-06T01:38:21;93.65;;;40.90;;
26598;SDS011;14240;51.064;16.612;2024-03-06T01:40:47;87.28;;;40.50;;
26598;SDS011;14240;51.064;16.612;2024-03-06T01:43:19;89.95;;;40.85;;
26598;SDS011;14240;51.064;16.612;2024-03-06T01:45:49;90.78;;;40.67;;
26598;SDS011;14240;51.064;16.612;2024-03-06T01:48:19;81.55;;;39.88;;
26598;SDS011;14240;51.064;16.612;2024-03-06T01:50:47;90.05;;;42.33;;
26598;SDS011;14240;51.064;16.612;2024-03-06T01:53:13;93.38;;;42.05;;
26598;SDS011;14240;51.064;16.612;2024-03-06T01:55:41;89.43;;;42.95;;
26598;SDS011;14240;51.064;16.612;2024-03-06T01:58:07;90.05;;;41.83;;
26598;SDS011;14240;51.064;16.612;2024-03-06T02:00:34;86.60;;;40.45;;
26598;SDS011;14240;51.064;16.612;2024-03-06T02:03:00;97.97;;;44.95;;
26598;SDS011;14240;51.064;16.612;2024-03-06T02:05:27;101.50;;;44.85;;
26598;SDS011;14240;51.064;16.612;2024-03-06T02:07:56;92.93;;;43.17;;
26598;SDS011;14240;51.064;16.612;2024-03-06T02:10:23;103.70;;;45.05;;
26598;SDS011;14240;51.064;16.612;2024-03-06T02:12:51;103.60;;;44.28;;
26598;SDS011;14240;51.064;16.612;2024-03-06T02:15:18;95.22;;;42.28;;
26598;SDS011;14240;51.064;16.612;2024-03-06T02:17:44;97.95;;;44.95;;
26598;SDS011;14240;51.064;16.612;2024-03-06T02:20:11;105.28;;;46.38;;
26598;SDS011;14240;51.064;16.612;2024-03-06T02:22:38;97.25;;;45.60;;
26598;SDS011;14240;51.064;16.612;2024-03-06T02:25:05;99.07;;;45.28;;
26598;SDS011;14240;51.064;16.612;2024-03-06T02:27:31;103.15;;;45.13;;
26598;SDS011;14240;51.064;16.612;2024-03-06T02:29:57;99.53;;;44.47;;
26598;SDS011;14240;51.064;16.612;2024-03-06T02:32:23;100.72;;;43.72;;
26598;SDS011;14240;51.064;16.612;2024-03-06T02:34:50;100.65;;;45.20;;
26598;SDS011;14240;51.064;16.612;2024-03-06T02:37:16;101.45;;;44.42;;
26598;SDS011;14240;51.064;16.612;2024-03-06T02:39:41;98.20;;;46.55;;
26598;SDS011;14240;51.064;16.612;2024-03-06T02:42:07;99.22;;;43.70;;
26598;SDS011;14240;51.064;16.612;2024-03-06T02:44:33;108.72;;;45.38;;
26598;SDS011;14240;51.064;16.612;2024-03-06T02:46:59;104.10;;;45.28;;
26598;SDS011;14240;51.064;16.612;2024-03-06T02:49:24;103.63;;;44.83;;
26598;SDS011;14240;51.064;16.612;2024-03-06T02:51:50;105.38;;;43.75;;
26598;SDS011;14240;51.064;16.612;2024-03-06T02:54:16;103.10;;;45.75;;
26598;SDS011;14240;51.064;16.612;2024-03-06T02:56:42;97.15;;;44.08;;
26598;SDS011;14240;51.064;16.612;2024-03-06T02:59:08;106.05;;;46.20;;
26598;SDS011;14240;51.064;16.612;2024-03-06T03:01:34;97.63;;;44.17;;
26598;SDS011;14240;51.064;16.612;2024-03-06T03:03:59;108.57;;;46.58;;
26598;SDS011;14240;51.064;16.612;2024-03-06T03:06:25;104.05;;;46.30;;
26598;SDS011;14240;51.064;16.612;2024-03-06T03:08:51;98.65;;;46.58;;
26598;SDS011;14240;51.064;16.612;2024-03-06T03:11:17;97.57;;;46.17;;
26598;SDS011;14240;51.064;16.612;2024-03-06T03:13:43;103.15;;;46.45;;
26598;SDS011;14240;51.064;16.612;2024-03-06T03:16:18;97.57;;;45.28;;
26598;SDS011;14240;51.064;16.612;2024-03-06T03:18:45;103.93;;;46.40;;
26598;SDS011;14240;51.064;16.612;2024-03-06T03:21:11;101.82;;;45.42;;
26598;SDS011;14240;51.064;16.612;2024-03-06T03:23:38;103.30;;;48.00;;
26598;SDS011;14240;51.064;16.612;2024-03-06T03:26:05;108.63;;;47.60;;
26598;SDS011;14240;51.064;16.612;2024-03-06T03:28:31;104.30;;;47.47;;
26598;SDS011;14240;51.064;16.612;2024-03-06T03:30:58;99.40;;;47.30;;
26598;SDS011;14240;51.064;16.612;2024-03-06T03:33:23;106.07;;;48.50;;
26598;SDS011;14240;51.064;16.612;2024-03-06T03:35:49;106.65;;;48.03;;
26598;SDS011;14240;51.064;16.612;2024-03-06T03:38:15;97.32;;;46.40;;
26598;SDS011;14240;51.064;16.612;2024-03-06T03:40:42;102.72;;;45.92;;
26598;SDS011;14240;51.064;16.612;2024-03-06T03:43:08;110.00;;;46.40;;
26598;SDS011;14240;51.064;16.612;2024-03-06T03:45:34;96.97;;;44.70;;
26598;SDS011;14240;51.064;16.612;2024-03-06T03:48:03;106.28;;;46.25;;
26598;SDS011;14240;51.064;16.612;2024-03-06T03:50:30;109.28;;;46.17;;
26598;SDS011;14240;51.064;16.612;2024-03-06T03:52:56;103.03;;;45.35;;
26598;SDS011;14240;51.064;16.612;2024-03-06T03:55:23;107.70;;;46.17;;
26598;SDS011;14240;51.064;16.612;2024-03-06T03:57:50;100.27;;;45.27;;
26598;SDS011;14240;51.064;16.612;2024-03-06T04:00:17;102.45;;;47.58;;
26598;SDS011;14240;51.064;16.612;2024-03-06T04:02:43;106.75;;;47.30;;
26598;SDS011;14240;51.064;16.612;2024-03-06T04:05:09;111.32;;;47.92;;
26598;SDS011;14240;51.064;16.612;2024-03-06T04:07:37;103.68;;;45.97;;
26598;SDS011;14240;51.064;16.612;2024-03-06T04:10:03;99.15;;;45.67;;
26598;SDS011;14240;51.064;16.612;2024-03-06T04:12:29;105.40;;;46.38;;
26598;SDS011;14240;51.064;16.612;2024-03-06T04:14:55;109.47;;;47.13;;
26598;SDS011;14240;51.064;16.612;2024-03-06T04:17:22;109.68;;;46.40;;
26598;SDS011;14240;51.064;16.612;2024-03-06T04:19:47;112.28;;;48.15;;
26598;SDS011;14240;51.064;16.612;2024-03-06T04:22:13;105.70;;;46.20;;
26598;SDS011;14240;51.064;16.612;2024-03-06T04:24:43;102.95;;;46.30;;
26598;SDS011;14240;51.064;16.612;2024-03-06T04:27:08;104.00;;;46.08;;
26598;SDS011;14240;51.064;16.612;2024-03-06T04:29:34;105.30;;;44.95;;
26598;SDS011;14240;51.064;16.612;2024-03-06T04:32:00;107.47;;;45.78;;
26598;SDS011;14240;51.064;16.612;2024-03-06T04:34:26;111.75;;;45.30;;
26598;SDS011;14240;51.064;16.612;2024-03-06T04:36:51;111.53;;;45.97;;
26598;SDS011;14240;51.064;16.612;2024-03-06T04:39:17;100.43;;;45.95;;
26598;SDS011;14240;51.064;16.612;2024-03-06T04:41:43;109.32;;;44.80;;
26598;SDS011;14240;51.064;16.612;2024-03-06T04:44:08;108.68;;;45.15;;
26598;SDS011;14240;51.064;16.612;2024-03-06T04:46:34;112.38;;;44.15;;
26598;SDS011;14240;51.064;16.612;2024-03-06T04:49:00;100.63;;;46.00;;
26598;SDS011;14240;51.064;16.612;2024-03-06T04:51:25;107.53;;;46.60;;
26598;SDS011;14240;51.064;16.612;2024-03-06T04:53:51;112.80;;;46.55;;
26598;SDS011;14240;51.064;16.612;2024-03-06T04:56:17;101.97;;;44.30;;
26598;SDS011;14240;51.064;16.612;2024-03-06T04:58:45;105.07;;;46.08;;
26598;SDS011;14240;51.064;16.612;2024-03-06T05:01:11;108.15;;;47.63;;
26598;SDS011;14240;51.064;16.612;2024-03-06T05:03:38;116.20;;;46.78;;
26598;SDS011;14240;51.064;16.612;2024-03-06T05:06:04;104.10;;;44.63;;
26598;SDS011;14240;51.064;16.612;2024-03-06T05:08:31;103.60;;;46.40;;
26598;SDS011;14240;51.064;16.612;2024-03-06T05:10:57;104.57;;;44.38;;
26598;SDS011;14240;51.064;16.612;2024-03-06T05:13:25;112.60;;;47.83;;
26598;SDS011;14240;51.064;16.612;2024-03-06T05:15:51;99.68;;;44.28;;
26598;SDS011;14240;51.064;16.612;2024-03-06T05:18:17;111.93;;;47.20;;
26598;SDS011;14240;51.064;16.612;2024-03-06T05:20:43;104.05;;;46.72;;
26598;SDS011;14240;51.064;16.612;2024-03-06T05:23:08;106.30;;;43.78;;
26598;SDS011;14240;51.064;16.612;2024-03-06T05:25:34;106.65;;;43.85;;
26598;SDS011;14240;51.064;16.612;2024-03-06T05:28:00;108.25;;;46.50;;
26598;SDS011;14240;51.064;16.612;2024-03-06T05:30:25;112.68;;;47.83;;
26598;SDS011;14240;51.064;16.612;2024-03-06T05:32:51;108.68;;;47.22;;
26598;SDS011;14240;51.064;16.612;2024-03-06T05:35:17;115.38;;;49.58;;
26598;SDS011;14240;51.064;16.612;2024-03-06T05:37:43;105.80;;;46.20;;
26598;SDS011;14240;51.064;16.612;2024-03-06T05:40:09;105.35;;;44.25;;
26598;SDS011;14240;51.064;16.612;2024-03-06T05:42:35;108.80;;;46.40;;
26598;SDS011;14240;51.064;16.612;2024-03-06T05:45:01;113.32;;;47.25;;
26598;SDS011;14240;51.064;16.612;2024-03-06T05:47:31;106.25;;;45.30;;
26598;SDS011;14240;51.064;16.612;2024-03-06T05:49:57;108.97;;;46.53;;
26598;SDS011;14240;51.064;16.612;2024-03-06T05:52:23;105.18;;;46.75;;
26598;SDS011;14240;51.064;16.612;2024-03-06T05:54:49;113.40;;;46.70;;
26598;SDS011;14240;51.064;16.612;2024-03-06T05:57:15;115.43;;;49.17;;
26598;SDS011;14240;51.064;16.612;2024-03-06T05:59:41;108.00;;;45.17;;
26598;SDS011;14240;51.064;16.612;2024-03-06T06:02:07;109.70;;;46.65;;
26598;SDS011;14240;51.064;16.612;2024-03-06T06:04:33;99.10;;;45.08;;
26598;SDS011;14240;51.064;16.612;2024-03-06T06:06:58;106.60;;;45.03;;
26598;SDS011;14240;51.064;16.612;2024-03-06T06:09:24;110.85;;;46.28;;
26598;SDS011;14240;51.064;16.612;2024-03-06T06:11:50;99.70;;;45.13;;
26598;SDS011;14240;51.064;16.612;2024-03-06T06:14:16;115.47;;;46.35;;
26598;SDS011;14240;51.064;16.612;2024-03-06T06:16:42;108.30;;;45.38;;
26598;SDS011;14240;51.064;16.612;2024-03-06T06:19:07;109.88;;;46.50;;
26598;SDS011;14240;51.064;16.612;2024-03-06T06:21:33;117.85;;;47.40;;
26598;SDS011;14240;51.064;16.612;2024-03-06T06:24:01;110.85;;;47.17;;
26598;SDS011;14240;51.064;16.612;2024-03-06T06:26:28;104.90;;;45.55;;
26598;SDS011;14240;51.064;16.612;2024-03-06T06:28:55;101.25;;;45.00;;
26598;SDS011;14240;51.064;16.612;2024-03-06T06:31:22;109.13;;;45.28;;
26598;SDS011;14240;51.064;16.612;2024-03-06T06:33:48;114.85;;;46.97;;
26598;SDS011;14240;51.064;16.612;2024-03-06T06:36:14;107.72;;;44.97;;
26598;SDS011;14240;51.064;16.612;2024-03-06T06:38:40;106.82;;;43.95;;
26598;SDS011;14240;51.064;16.612;2024-03-06T06:41:05;106.75;;;45.30;;
26598;SDS011;14240;51.064;16.612;2024-03-06T06:43:31;97.85;;;42.83;;
26598;SDS011;14240;51.064;16.612;2024-03-06T06:45:57;95.07;;;41.13;;
26598;SDS011;14240;51.064;16.612;2024-03-06T06:48:23;95.15;;;44.00;;
26598;SDS011;14240;51.064;16.612;2024-03-06T06:50:48;93.95;;;41.75;;
26598;SDS011;14240;51.064;16.612;2024-03-06T06:53:14;91.50;;;40.13;;
26598;SDS011;14240;51.064;16.612;2024-03-06T06:55:40;99.90;;;43.60;;
26598;SDS011;14240;51.064;16.612;2024-03-06T06:58:06;96.53;;;41.83;;
26598;SDS011;14240;51.064;16.612;2024-03-06T07:00:32;97.22;;;43.28;;
26598;SDS011;14240;51.064;16.612;2024-03-06T07:02:59;93.10;;;40.05;;
26598;SDS011;14240;51.064;16.612;2024-03-06T07:05:25;90.10;;;40.95;;
26598;SDS011;14240;51.064;16.612;2024-03-06T07:07:51;89.40;;;40.70;;
26598;SDS011;14240;51.064;16.612;2024-03-06T07:10:18;97.65;;;40.35;;
26598;SDS011;14240;51.064;16.612;2024-03-06T07:12:44;76.25;;;34.90;;
26598;SDS011;14240;51.064;16.612;2024-03-06T07:15:09;78.85;;;36.47;;
26598;SDS011;14240;51.064;16.612;2024-03-06T07:17:35;74.47;;;36.13;;
26598;SDS011;14240;51.064;16.612;2024-03-06T07:20:01;71.80;;;36.17;;
26598;SDS011;14240;51.064;16.612;2024-03-06T07:22:27;71.13;;;34.63;;
26598;SDS011;14240;51.064;16.612;2024-03-06T07:24:52;63.78;;;32.20;;
26598;SDS011;14240;51.064;16.612;2024-03-06T07:27:18;66.40;;;33.15;;
26598;SDS011;14240;51.064;16.612;2024-03-06T07:29:44;63.35;;;33.13;;
26598;SDS011;14240;51.064;16.612;2024-03-06T07:32:09;65.80;;;32.58;;
26598;SDS011;14240;51.064;16.612;2024-03-06T07:34:35;55.92;;;30.67;;
26598;SDS011;14240;51.064;16.612;2024-03-06T07:37:01;55.50;;;32.35;;
26598;SDS011;14240;51.064;16.612;2024-03-06T07:39:27;58.70;;;31.27;;
26598;SDS011;14240;51.064;16.612;2024-03-06T07:41:52;58.95;;;31.15;;
26598;SDS011;14240;51.064;16.612;2024-03-06T07:44:19;49.65;;;28.90;;
26598;SDS011;14240;51.064;16.612;2024-03-06T07:46:45;57.33;;;30.80;;
26598;SDS011;14240;51.064;16.612;2024-03-06T07:49:11;52.20;;;30.10;;
26598;SDS011;14240;51.064;16.612;2024-03-06T07:51:37;51.22;;;31.45;;
26598;SDS011;14240;51.064;16.612;2024-03-06T07:54:03;48.25;;;31.70;;
26598;SDS011;14240;51.064;16.612;2024-03-06T07:56:31;49.50;;;30.88;;
26598;SDS011;14240;51.064;16.612;2024-03-06T07:58:57;43.22;;;28.70;;
26598;SDS011;14240;51.064;16.612;2024-03-06T08:01:23;47.75;;;29.90;;
26598;SDS011;14240;51.064;16.612;2024-03-06T08:03:49;45.60;;;28.70;;
26598;SDS011;14240;51.064;16.612;2024-03-06T08:06:15;47.17;;;29.50;;
26598;SDS011;14240;51.064;16.612;2024-03-06T08:08:44;48.15;;;30.83;;
26598;SDS011;14240;51.064;16.612;2024-03-06T08:11:10;44.42;;;28.67;;
26598;SDS011;14240;51.064;16.612;2024-03-06T08:13:37;45.33;;;30.80;;
26598;SDS011;14240;51.064;16.612;2024-03-06T08:16:03;44.28;;;28.52;;
26598;SDS011;14240;51.064;16.612;2024-03-06T08:18:30;42.92;;;28.40;;
26598;SDS011;14240;51.064;16.612;2024-03-06T08:20:56;44.15;;;30.05;;
26598;SDS011;14240;51.064;16.612;2024-03-06T08:23:22;45.67;;;30.27;;
26598;SDS011;14240;51.064;16.612;2024-03-06T08:25:48;46.35;;;31.27;;
26598;SDS011;14240;51.064;16.612;2024-03-06T08:28:14;43.90;;;28.35;;
26598;SDS011;14240;51.064;16.612;2024-03-06T08:30:40;43.63;;;29.75;;
26598;SDS011;14240;51.064;16.612;2024-03-06T08:33:06;43.78;;;30.60;;
26598;SDS011;14240;51.064;16.612;2024-03-06T08:35:32;38.53;;;29.33;;
26598;SDS011;14240;51.064;16.612;2024-03-06T08:37:57;40.97;;;29.75;;
26598;SDS011;14240;51.064;16.612;2024-03-06T08:40:23;40.15;;;29.63;;
26598;SDS011;14240;51.064;16.612;2024-03-06T08:42:50;40.00;;;29.40;;
26598;SDS011;14240;51.064;16.612;2024-03-06T08:45:16;39.22;;;28.90;;
26598;SDS011;14240;51.064;16.612;2024-03-06T08:47:43;38.78;;;28.23;;
26598;SDS011;14240;51.064;16.612;2024-03-06T08:50:10;37.03;;;28.67;;
26598;SDS011;14240;51.064;16.612;2024-03-06T08:52:36;40.55;;;28.35;;
26598;SDS011;14240;51.064;16.612;2024-03-06T08:55:03;37.25;;;27.90;;
26598;SDS011;14240;51.064;16.612;2024-03-06T08:57:29;36.47;;;26.85;;
26598;SDS011;14240;51.064;16.612;2024-03-06T08:59:56;35.50;;;26.95;;
26598;SDS011;14240;51.064;16.612;2024-03-06T09:02:25;36.72;;;28.30;;
26598;SDS011;14240;51.064;16.612;2024-03-06T09:04:51;37.97;;;28.13;;
26598;SDS011;14240;51.064;16.612;2024-03-06T09:07:17;38.40;;;28.63;;
26598;SDS011;14240;51.064;16.612;2024-03-06T09:09:44;40.53;;;29.65;;
26598;SDS011;14240;51.064;16.612;2024-03-06T09:12:10;41.50;;;29.27;;
26598;SDS011;14240;51.064;16.612;2024-03-06T09:14:36;41.53;;;29.88;;
26598;SDS011;14240;51.064;16.612;2024-03-06T09:17:03;39.73;;;28.73;;
26598;SDS011;14240;51.064;16.612;2024-03-06T09:19:29;35.78;;;26.10;;
26598;SDS011;14240;51.064;16.612;2024-03-06T09:21:56;31.30;;;24.20;;
26598;SDS011;14240;51.064;16.612;2024-03-06T09:24:22;39.13;;;26.60;;
26598;SDS011;14240;51.064;16.612;2024-03-06T09:26:50;31.15;;;23.30;;
26598;SDS011;14240;51.064;16.612;2024-03-06T09:29:16;39.15;;;26.35;;
26598;SDS011;14240;51.064;16.612;2024-03-06T09:31:42;29.35;;;22.52;;
26598;SDS011;14240;51.064;16.612;2024-03-06T09:34:08;29.35;;;22.80;;
26598;SDS011;14240;51.064;16.612;2024-03-06T09:36:40;32.90;;;24.77;;
26598;SDS011;14240;51.064;16.612;2024-03-06T09:39:10;31.20;;;23.35;;
26598;SDS011;14240;51.064;16.612;2024-03-06T09:41:44;32.28;;;23.45;;
26598;SDS011;14240;51.064;16.612;2024-03-06T09:44:11;35.72;;;23.77;;
26598;SDS011;14240;51.064;16.612;2024-03-06T09:49:07;37.67;;;26.38;;
26598;SDS011;14240;51.064;16.612;2024-03-06T09:51:34;38.17;;;25.73;;
26598;SDS011;14240;51.064;16.612;2024-03-06T09:54:01;34.83;;;24.13;;
26598;SDS011;14240;51.064;16.612;2024-03-06T09:56:30;52.20;;;29.83;;
26598;SDS011;14240;51.064;16.612;2024-03-06T09:58:57;35.38;;;23.00;;
26598;SDS011;14240;51.064;16.612;2024-03-06T10:01:23;31.33;;;20.48;;
26598;SDS011;14240;51.064;16.612;2024-03-06T10:03:49;34.23;;;21.80;;
26598;SDS011;14240;51.064;16.612;2024-03-06T10:06:15;34.20;;;19.90;;
26598;SDS011;14240;51.064;16.612;2024-03-06T10:08:42;39.88;;;23.38;;
26598;SDS011;14240;51.064;16.612;2024-03-06T10:11:09;34.90;;;23.30;;
26598;SDS011;14240;51.064;16.612;2024-03-06T10:13:35;37.83;;;23.88;;
26598;SDS011;14240;51.064;16.612;2024-03-06T10:16:02;44.75;;;26.40;;
26598;SDS011;14240;51.064;16.612;2024-03-06T10:20:56;57.97;;;30.42;;
26598;SDS011;14240;51.064;16.612;2024-03-06T10:23:22;56.00;;;31.70;;
26598;SDS011;14240;51.064;16.612;2024-03-06T10:25:48;61.65;;;34.85;;
26598;SDS011;14240;51.064;16.612;2024-03-06T10:28:21;51.05;;;29.05;;
26598;SDS011;14240;51.064;16.612;2024-03-06T10:30:48;47.92;;;27.35;;
26598;SDS011;14240;51.064;16.612;2024-03-06T10:33:16;63.28;;;35.58;;
26598;SDS011;14240;51.064;16.612;2024-03-06T10:35:47;69.93;;;35.42;;
26598;SDS011;14240;51.064;16.612;2024-03-06T10:38:16;44.67;;;26.95;;
26598;SDS011;14240;51.064;16.612;2024-03-06T10:40:45;36.20;;;22.55;;
26598;SDS011;14240;51.064;16.612;2024-03-06T10:43:11;39.65;;;24.27;;
26598;SDS011;14240;51.064;16.612;2024-03-06T10:45:51;59.17;;;32.70;;
26598;SDS011;14240;51.064;16.612;2024-03-06T10:48:22;61.40;;;34.78;;
26598;SDS011;14240;51.064;16.612;2024-03-06T10:50:50;63.90;;;36.08;;
26598;SDS011;14240;51.064;16.612;2024-03-06T10:53:17;71.03;;;38.35;;
26598;SDS011;14240;51.064;16.612;2024-03-06T10:55:43;75.13;;;39.47;;
26598;SDS011;14240;51.064;16.612;2024-03-06T10:58:10;85.22;;;45.75;;
26598;SDS011;14240;51.064;16.612;2024-03-06T11:00:37;83.82;;;43.42;;
26598;SDS011;14240;51.064;16.612;2024-03-06T11:03:08;70.78;;;37.33;;
26598;SDS011;14240;51.064;16.612;2024-03-06T11:05:35;76.30;;;38.97;;
26598;SDS011;14240;51.064;16.612;2024-03-06T11:08:05;74.68;;;35.17;;
26598;SDS011;14240;51.064;16.612;2024-03-06T11:10:36;71.68;;;36.35;;
26598;SDS011;14240;51.064;16.612;2024-03-06T11:13:20;71.15;;;36.25;;
26598;SDS011;14240;51.064;16.612;2024-03-06T11:15:51;67.80;;;34.75;;
26598;SDS011;14240;51.064;16.612;2024-03-06T11:20:53;57.03;;;29.98;;
26598;SDS011;14240;51.064;16.612;2024-03-06T11:26:42;78.38;;;39.17;;
26598;SDS011;14240;51.064;16.612;2024-03-06T11:29:10;72.60;;;36.33;;
26598;SDS011;14240;51.064;16.612;2024-03-06T11:31:36;61.05;;;31.13;;
26598;SDS011;14240;51.064;16.612;2024-03-06T11:34:03;66.32;;;33.45;;
26598;SDS011;14240;51.064;16.612;2024-03-06T11:36:30;68.68;;;34.88;;
26598;SDS011;14240;51.064;16.612;2024-03-06T11:38:56;51.95;;;28.05;;
26598;SDS011;14240;51.064;16.612;2024-03-06T11:41:57;45.05;;;23.85;;
26598;SDS011;14240;51.064;16.612;2024-03-06T11:44:20;46.67;;;25.02;;
26598;SDS011;14240;51.064;16.612;2024-03-06T11:46:56;47.95;;;26.35;;
26598;SDS011;14240;51.064;16.612;2024-03-06T11:49:27;47.78;;;27.02;;
26598;SDS011;14240;51.064;16.612;2024-03-06T11:51:57;43.17;;;23.90;;
26598;SDS011;14240;51.064;16.612;2024-03-06T11:54:27;42.20;;;22.40;;
26598;SDS011;14240;51.064;16.612;2024-03-06T11:56:55;48.05;;;24.38;;
26598;SDS011;14240;51.064;16.612;2024-03-06T11:59:26;49.88;;;27.02;;
26598;SDS011;14240;51.064;16.612;2024-03-06T12:01:57;47.72;;;26.08;;
26598;SDS011;14240;51.064;16.612;2024-03-06T12:04:26;46.80;;;23.63;;
26598;SDS011;14240;51.064;16.612;2024-03-06T12:06:52;43.80;;;22.08;;
26598;SDS011;14240;51.064;16.612;2024-03-06T12:09:25;42.47;;;22.33;;
26598;SDS011;14240;51.064;16.612;2024-03-06T12:11:52;67.10;;;30.33;;
26598;SDS011;14240;51.064;16.612;2024-03-06T12:14:19;50.88;;;25.73;;
26598;SDS011;14240;51.064;16.612;2024-03-06T12:16:55;61.83;;;24.60;;
26598;SDS011;14240;51.064;16.612;2024-03-06T12:19:22;36.10;;;18.52;;
26598;SDS011;14240;51.064;16.612;2024-03-06T12:21:48;35.55;;;19.35;;
26598;SDS011;14240;51.064;16.612;2024-03-06T12:24:15;35.05;;;19.83;;
26598;SDS011;14240;51.064;16.612;2024-03-06T12:26:45;32.92;;;18.40;;
26598;SDS011;14240;51.064;16.612;2024-03-06T12:29:16;38.05;;;18.90;;
26598;SDS011;14240;51.064;16.612;2024-03-06T12:31:42;30.20;;;15.88;;
26598;SDS011;14240;51.064;16.612;2024-03-06T12:34:13;32.63;;;18.50;;
26598;SDS011;14240;51.064;16.612;2024-03-06T12:36:42;38.65;;;20.45;;
26598;SDS011;14240;51.064;16.612;2024-03-06T12:39:08;42.25;;;19.95;;
26598;SDS011;14240;51.064;16.612;2024-03-06T12:41:40;41.35;;;20.75;;
26598;SDS011;14240;51.064;16.612;2024-03-06T12:44:06;42.33;;;22.02;;
26598;SDS011;14240;51.064;16.612;2024-03-06T12:46:32;38.55;;;20.95;;
26598;SDS011;14240;51.064;16.612;2024-03-06T12:48:58;30.73;;;17.63;;
26598;SDS011;14240;51.064;16.612;2024-03-06T12:51:23;38.03;;;18.88;;
26598;SDS011;14240;51.064;16.612;2024-03-06T12:53:50;36.83;;;19.10;;
26598;SDS011;14240;51.064;16.612;2024-03-06T12:56:16;39.67;;;21.23;;
26598;SDS011;14240;51.064;16.612;2024-03-06T12:58:42;33.78;;;18.65;;
26598;SDS011;14240;51.064;16.612;2024-03-06T13:01:08;36.95;;;20.42;;
26598;SDS011;14240;51.064;16.612;2024-03-06T13:03:35;35.28;;;18.35;;
26598;SDS011;14240;51.064;16.612;2024-03-06T13:06:02;28.13;;;16.33;;
26598;SDS011;14240;51.064;16.612;2024-03-06T13:08:29;28.95;;;15.60;;
26598;SDS011;14240;51.064;16.612;2024-03-06T13:10:55;29.25;;;15.68;;
26598;SDS011;14240;51.064;16.612;2024-03-06T13:13:21;32.95;;;17.58;;
26598;SDS011;14240;51.064;16.612;2024-03-06T13:15:49;42.08;;;21.30;;
26598;SDS011;14240;51.064;16.612;2024-03-06T13:18:15;38.67;;;19.93;;
26598;SDS011;14240;51.064;16.612;2024-03-06T13:20:41;44.90;;;21.48;;
26598;SDS011;14240;51.064;16.612;2024-03-06T13:23:07;39.75;;;21.88;;
26598;SDS011;14240;51.064;16.612;2024-03-06T13:25:33;42.13;;;22.88;;
26598;SDS011;14240;51.064;16.612;2024-03-06T13:27:59;39.78;;;22.20;;
26598;SDS011;14240;51.064;16.612;2024-03-06T13:30:25;35.30;;;18.55;;
26598;SDS011;14240;51.064;16.612;2024-03-06T13:32:51;37.67;;;20.80;;
26598;SDS011;14240;51.064;16.612;2024-03-06T13:35:16;31.65;;;17.27;;
26598;SDS011;14240;51.064;16.612;2024-03-06T13:37:43;32.83;;;18.88;;
26598;SDS011;14240;51.064;16.612;2024-03-06T13:40:09;36.30;;;19.73;;
26598;SDS011;14240;51.064;16.612;2024-03-06T13:42:38;35.53;;;19.52;;
26598;SDS011;14240;51.064;16.612;2024-03-06T13:45:07;38.72;;;20.17;;
26598;SDS011;14240;51.064;16.612;2024-03-06T13:47:37;37.47;;;19.60;;
26598;SDS011;14240;51.064;16.612;2024-03-06T13:50:13;36.50;;;19.83;;
26598;SDS011;14240;51.064;16.612;2024-03-06T13:52:39;37.55;;;20.00;;
26598;SDS011;14240;51.064;16.612;2024-03-06T13:55:06;35.72;;;18.95;;
26598;SDS011;14240;51.064;16.612;2024-03-06T13:57:33;32.60;;;18.65;;
26598;SDS011;14240;51.064;16.612;2024-03-06T14:00:03;32.10;;;17.90;;
26598;SDS011;14240;51.064;16.612;2024-03-06T14:02:30;34.83;;;18.83;;
26598;SDS011;14240;51.064;16.612;2024-03-06T14:04:56;32.47;;;17.73;;
26598;SDS011;14240;51.064;16.612;2024-03-06T14:07:22;30.77;;;18.75;;
26598;SDS011;14240;51.064;16.612;2024-03-06T14:09:49;30.95;;;16.88;;
26598;SDS011;14240;51.064;16.612;2024-03-06T14:12:15;31.38;;;18.40;;
26598;SDS011;14240;51.064;16.612;2024-03-06T14:14:42;34.65;;;18.23;;